Time;durP1;ratioP1;P1;durP2;ratioP2;P2;SDS_P1;SDS_P2;PMS_P1;PMS_P2;Temp;Humidity;BMP_temperature;BMP_pressure;BME280_temperature;BME280_humidity;BME280_pressure;Samples;Min_cycle;Max_cycle;Signal;HPM_P1;HPM_P2
2021/11/29 00:00:49;;;;;;;5.22;2.40;;;1.50;93.90;;;;;;5048205;28;20041;-84
2021/11/29 00:03:16;;;;;;;4.07;2.10;;;1.60;93.90;;;;;;5039361;28;20412;-85
2021/11/29 00:05:42;;;;;;;3.95;2.28;;;1.50;93.90;;;;;;5048712;28;20365;-87
2021/11/29 00:08:08;;;;;;;4.53;2.25;;;1.60;93.90;;;;;;5048964;28;20132;-85
2021/11/29 00:10:34;;;;;;;4.68;2.25;;;1.60;94.00;;;;;;5048035;28;20477;-84
2021/11/29 00:13:02;;;;;;;6.35;2.70;;;1.60;93.90;;;;;;5050568;28;20045;-84
2021/11/29 00:15:27;;;;;;;6.30;2.80;;;1.60;93.90;;;;;;5043461;28;20040;-85
2021/11/29 00:17:53;;;;;;;5.93;3.00;;;1.60;93.90;;;;;;5049748;28;20040;-85
2021/11/29 00:20:20;;;;;;;5.78;2.97;;;1.60;93.90;;;;;;5039285;28;20469;-84
2021/11/29 00:22:47;;;;;;;5.82;3.17;;;1.60;93.90;;;;;;5043380;28;20064;-85
2021/11/29 00:25:13;;;;;;;4.50;2.47;;;1.70;94.00;;;;;;5043625;28;20033;-86
2021/11/29 00:27:39;;;;;;;5.82;2.67;;;1.70;93.90;;;;;;5051096;28;20045;-85
2021/11/29 00:30:07;;;;;;;4.03;2.33;;;1.70;94.00;;;;;;5051052;28;20091;-85
2021/11/29 00:32:33;;;;;;;5.38;2.40;;;1.80;94.00;;;;;;5048933;28;20119;-85
2021/11/29 00:34:59;;;;;;;4.53;2.38;;;1.90;94.00;;;;;;5047945;28;20143;-85
2021/11/29 00:37:24;;;;;;;4.88;2.45;;;1.90;94.00;;;;;;5049704;28;20429;-84
2021/11/29 00:39:51;;;;;;;5.43;2.30;;;2.00;93.90;;;;;;5048843;28;20090;-84
2021/11/29 00:42:18;;;;;;;5.70;2.40;;;2.10;93.90;;;;;;5048370;28;20407;-85
2021/11/29 00:44:44;;;;;;;7.85;2.33;;;2.10;93.80;;;;;;5047997;28;20037;-85
2021/11/29 00:47:10;;;;;;;4.20;2.20;;;2.10;93.80;;;;;;5048586;28;20041;-85
2021/11/29 00:49:36;;;;;;;3.83;2.22;;;2.20;93.80;;;;;;5055125;28;20142;-85
2021/11/29 00:52:02;;;;;;;6.90;2.20;;;2.20;93.70;;;;;;5048141;28;20034;-84
2021/11/29 00:54:28;;;;;;;3.95;2.15;;;2.30;93.70;;;;;;5049475;28;20045;-85
2021/11/29 00:56:53;;;;;;;4.70;2.22;;;2.40;93.70;;;;;;5046395;28;20045;-84
2021/11/29 00:59:19;;;;;;;5.32;2.60;;;2.50;93.60;;;;;;5044899;28;20086;-83
2021/11/29 01:01:45;;;;;;;5.72;2.58;;;2.50;93.60;;;;;;5048567;28;20040;-83
2021/11/29 01:04:12;;;;;;;7.55;3.03;;;2.50;93.50;;;;;;5049779;28;20101;-83
2021/11/29 01:06:37;;;;;;;5.20;2.60;;;2.60;93.50;;;;;;5046290;28;20033;-83
2021/11/29 01:09:04;;;;;;;7.13;2.85;;;2.60;93.40;;;;;;5044404;28;20039;-84
2021/11/29 01:11:30;;;;;;;5.25;2.58;;;2.60;93.40;;;;;;5049629;28;20051;-84
2021/11/29 01:13:55;;;;;;;5.15;2.47;;;2.60;93.30;;;;;;5049736;28;20036;-83
2021/11/29 01:16:22;;;;;;;6.78;2.60;;;2.60;93.30;;;;;;5050859;28;20057;-84
2021/11/29 01:18:48;;;;;;;5.68;2.70;;;2.60;93.20;;;;;;5047658;28;20027;-83
2021/11/29 01:21:14;;;;;;;5.25;2.70;;;2.60;93.20;;;;;;5048154;28;20365;-83
2021/11/29 01:23:40;;;;;;;5.32;2.50;;;2.60;93.20;;;;;;5049526;28;20491;-84
2021/11/29 01:26:06;;;;;;;5.68;2.58;;;2.60;93.20;;;;;;5049528;28;20025;-84
2021/11/29 01:28:32;;;;;;;6.60;3.30;;;2.60;93.20;;;;;;5045532;28;20044;-83
2021/11/29 01:30:58;;;;;;;7.70;2.65;;;2.60;93.20;;;;;;5048062;28;20120;-84
2021/11/29 01:33:24;;;;;;;5.95;2.50;;;2.50;93.20;;;;;;5047444;28;20119;-83
2021/11/29 01:35:49;;;;;;;7.03;3.20;;;2.60;93.30;;;;;;5048233;28;20033;-84
2021/11/29 01:38:15;;;;;;;7.00;3.42;;;2.60;93.20;;;;;;5049170;28;20090;-85
2021/11/29 01:40:41;;;;;;;7.38;3.45;;;2.50;93.20;;;;;;5050684;28;20057;-84
2021/11/29 01:43:08;;;;;;;7.13;3.60;;;2.50;93.30;;;;;;5050811;28;20116;-83
2021/11/29 01:45:57;;;;;;;7.25;3.65;;;2.50;93.30;;;;;;5046608;28;20056;-84
2021/11/29 01:48:26;;;;;;;9.25;3.33;;;2.50;93.30;;;;;;5039371;28;20044;-84
2021/11/29 01:50:54;;;;;;;8.20;3.40;;;2.50;93.30;;;;;;5034370;28;20499;-84
2021/11/29 01:53:22;;;;;;;6.18;3.30;;;2.50;93.30;;;;;;5045689;28;20044;-85
2021/11/29 01:55:48;;;;;;;5.80;3.00;;;2.50;93.20;;;;;;5049919;28;20036;-84
2021/11/29 01:58:15;;;;;;;7.95;2.97;;;2.50;93.20;;;;;;5052227;28;20037;-84
2021/11/29 02:00:48;;;;;;;5.88;2.70;;;2.50;93.20;;;;;;5048114;28;20029;-85
2021/11/29 02:03:15;;;;;;;3.30;1.58;;;2.50;93.20;;;;;;5050171;28;20091;-84
2021/11/29 02:05:41;;;;;;;2.83;1.48;;;2.50;93.30;;;;;;5045459;28;20138;-84
2021/11/29 02:08:07;;;;;;;2.83;1.20;;;2.50;93.20;;;;;;5051666;28;20506;-85
2021/11/29 02:10:35;;;;;;;2.78;1.10;;;2.50;93.20;;;;;;5047707;28;20036;-86
2021/11/29 02:13:00;;;;;;;1.15;1.00;;;2.40;93.10;;;;;;5047556;28;20076;-85
2021/11/29 02:15:26;;;;;;;2.53;1.20;;;2.50;93.00;;;;;;5046681;28;20060;-86
2021/11/29 02:17:52;;;;;;;5.50;1.30;;;2.50;93.10;;;;;;5045587;28;20025;-85
2021/11/29 02:20:20;;;;;;;2.25;1.30;;;2.50;93.10;;;;;;5045455;28;20113;-85
2021/11/29 02:22:46;;;;;;;2.08;1.25;;;2.60;93.20;;;;;;5050943;28;20423;-85
2021/11/29 02:25:15;;;;;;;1.75;1.00;;;2.50;93.10;;;;;;5044186;28;20037;-84
2021/11/29 02:27:43;;;;;;;1.50;1.00;;;2.50;93.10;;;;;;5053442;28;20044;-85
2021/11/29 02:30:10;;;;;;;1.58;1.00;;;2.50;93.20;;;;;;5047263;28;20102;-85
2021/11/29 02:32:36;;;;;;;3.03;1.17;;;2.50;93.20;;;;;;5053001;28;20036;-84
2021/11/29 02:35:02;;;;;;;5.20;1.20;;;2.50;93.20;;;;;;5056968;28;20806;-83
2021/11/29 02:37:28;;;;;;;1.58;1.10;;;2.50;93.20;;;;;;5052864;28;20376;-84
2021/11/29 02:39:53;;;;;;;1.50;0.95;;;2.50;93.10;;;;;;5053729;28;20124;-83
2021/11/29 02:42:19;;;;;;;3.35;1.02;;;2.50;93.10;;;;;;5055076;28;20047;-83
2021/11/29 02:44:46;;;;;;;0.93;0.88;;;2.50;93.00;;;;;;5050883;28;20037;-85
2021/11/29 02:47:12;;;;;;;1.08;0.90;;;2.50;93.00;;;;;;5051490;28;20475;-84
2021/11/29 02:49:38;;;;;;;1.10;0.75;;;2.60;93.00;;;;;;5053601;28;20052;-84
2021/11/29 02:52:07;;;;;;;1.20;0.73;;;2.50;93.00;;;;;;5058857;28;20047;-83
2021/11/29 02:54:36;;;;;;;2.92;0.88;;;2.50;93.00;;;;;;5050874;28;20075;-83
2021/11/29 02:57:08;;;;;;;2.05;1.00;;;2.50;92.90;;;;;;5050568;28;20496;-84
2021/11/29 02:59:36;;;;;;;3.03;1.42;;;2.50;93.00;;;;;;5049050;28;20480;-85
2021/11/29 03:02:05;;;;;;;2.08;1.40;;;2.50;93.00;;;;;;5051908;28;20044;-86
2021/11/29 03:04:32;;;;;;;1.20;1.00;;;2.60;93.10;;;;;;5045655;28;20033;-85
2021/11/29 03:06:58;;;;;;;1.20;1.10;;;2.60;93.00;;;;;;5060749;28;20056;-85
2021/11/29 03:09:26;;;;;;;1.20;0.90;;;2.50;92.90;;;;;;5050908;28;20041;-85
2021/11/29 03:11:53;;;;;;;2.55;1.00;;;2.50;92.90;;;;;;5046631;28;20045;-85
2021/11/29 03:14:18;;;;;;;1.70;0.90;;;2.40;92.90;;;;;;5043694;28;20041;-85
2021/11/29 03:16:44;;;;;;;2.83;1.20;;;2.40;92.90;;;;;;5050677;28;20063;-83
2021/11/29 03:19:10;;;;;;;2.10;1.10;;;2.30;92.90;;;;;;5050889;28;20029;-85
2021/11/29 03:21:36;;;;;;;2.83;1.15;;;2.30;92.90;;;;;;5049871;28;20427;-83
2021/11/29 03:24:05;;;;;;;5.35;1.38;;;2.30;93.00;;;;;;5048432;28;20484;-83
2021/11/29 03:26:32;;;;;;;1.00;0.90;;;2.20;92.90;;;;;;5048994;28;20029;-85
2021/11/29 03:29:05;;;;;;;0.90;0.88;;;2.20;93.00;;;;;;5048489;28;20028;-84
2021/11/29 03:31:33;;;;;;;1.58;1.00;;;2.20;93.00;;;;;;5046934;28;20041;-85
2021/11/29 03:34:01;;;;;;;1.10;1.00;;;2.10;93.10;;;;;;5045012;28;20033;-83
2021/11/29 03:36:30;;;;;;;1.90;0.90;;;2.10;93.10;;;;;;5049927;28;20495;-86
2021/11/29 03:38:58;;;;;;;2.28;0.90;;;2.10;93.10;;;;;;5051123;28;20072;-85
2021/11/29 03:41:25;;;;;;;1.25;0.90;;;2.10;93.10;;;;;;5047954;28;20404;-84
2021/11/29 03:43:51;;;;;;;0.80;0.80;;;2.00;93.10;;;;;;5045507;28;20040;-84
2021/11/29 03:46:16;;;;;;;1.90;0.95;;;1.90;93.10;;;;;;5049609;28;20044;-84
2021/11/29 03:48:42;;;;;;;2.15;1.15;;;1.90;93.10;;;;;;5047037;28;20037;-84
2021/11/29 03:51:08;;;;;;;4.13;1.15;;;1.90;93.00;;;;;;5049218;28;20404;-83
2021/11/29 03:53:34;;;;;;;2.67;1.13;;;1.90;93.10;;;;;;5050817;28;20036;-83
2021/11/29 03:56:00;;;;;;;1.67;0.93;;;1.90;93.10;;;;;;5052300;28;20099;-84
2021/11/29 03:58:26;;;;;;;2.30;1.00;;;1.90;93.10;;;;;;5047220;28;20051;-83
2021/11/29 04:00:52;;;;;;;2.90;1.40;;;1.90;93.20;;;;;;5047035;28;20022;-85
2021/11/29 04:03:18;;;;;;;2.60;1.23;;;2.00;93.10;;;;;;5050102;28;20032;-86
2021/11/29 04:05:44;;;;;;;2.75;1.10;;;2.00;93.10;;;;;;5049260;28;20033;-85
2021/11/29 04:08:10;;;;;;;3.58;1.30;;;2.00;93.10;;;;;;5051184;28;20571;-85
2021/11/29 04:10:36;;;;;;;2.83;1.40;;;2.00;93.20;;;;;;5052270;28;20037;-85
2021/11/29 04:13:02;;;;;;;5.50;2.15;;;2.10;93.30;;;;;;5048565;28;20045;-83
2021/11/29 04:15:28;;;;;;;4.22;2.05;;;2.10;93.20;;;;;;5051832;28;20040;-84
2021/11/29 04:17:54;;;;;;;4.97;2.65;;;2.20;93.20;;;;;;5060488;28;20033;-85
2021/11/29 04:20:20;;;;;;;5.85;2.75;;;2.20;93.20;;;;;;5060291;28;20073;-85
2021/11/29 04:22:46;;;;;;;5.85;3.45;;;2.20;93.20;;;;;;5060367;28;20041;-83
2021/11/29 04:25:16;;;;;;;7.78;3.05;;;2.20;93.10;;;;;;5061453;28;20032;-84
2021/11/29 04:27:43;;;;;;;5.72;3.08;;;2.10;93.10;;;;;;5073828;28;20049;-86
2021/11/29 04:30:13;;;;;;;6.07;3.20;;;2.10;93.10;;;;;;5062865;28;20053;-86
2021/11/29 04:32:39;;;;;;;5.68;3.20;;;2.10;93.20;;;;;;5073834;28;20017;-87
2021/11/29 04:35:06;;;;;;;6.18;3.40;;;2.10;93.10;;;;;;5076128;28;20017;-86
2021/11/29 04:37:31;;;;;;;7.88;3.67;;;1.90;93.10;;;;;;5065556;28;20033;-84
2021/11/29 04:39:57;;;;;;;7.15;3.72;;;1.90;93.20;;;;;;5049810;28;20372;-83
2021/11/29 04:42:23;;;;;;;6.60;3.38;;;1.80;93.20;;;;;;5048548;28;20407;-85
2021/11/29 04:44:48;;;;;;;6.72;3.75;;;1.80;93.30;;;;;;5049610;28;20524;-84
2021/11/29 04:47:14;;;;;;;6.82;3.50;;;1.70;93.30;;;;;;5051083;28;20450;-84
2021/11/29 04:49:40;;;;;;;8.20;4.22;;;1.70;93.40;;;;;;5048989;28;20465;-85
2021/11/29 04:52:06;;;;;;;11.82;4.85;;;1.70;93.60;;;;;;5048072;28;20461;-85
2021/11/29 04:54:32;;;;;;;8.70;5.78;;;1.70;93.70;;;;;;5050884;28;20037;-85
2021/11/29 04:56:57;;;;;;;8.50;5.13;;;1.70;93.70;;;;;;5048048;28;20094;-84
2021/11/29 04:59:23;;;;;;;8.40;4.45;;;1.70;93.70;;;;;;5048522;28;20067;-84
2021/11/29 05:01:49;;;;;;;7.75;4.10;;;1.70;93.70;;;;;;5051710;28;20112;-85
2021/11/29 05:04:15;;;;;;;7.05;4.03;;;1.70;93.70;;;;;;5045087;28;20099;-85
2021/11/29 05:06:41;;;;;;;10.20;3.75;;;1.60;93.70;;;;;;5049973;28;20029;-85
2021/11/29 05:09:09;;;;;;;7.65;3.10;;;1.70;93.70;;;;;;5046446;28;20040;-86
2021/11/29 05:11:35;;;;;;;10.13;4.80;;;1.70;93.80;;;;;;5048404;28;20045;-86
2021/11/29 05:14:01;;;;;;;8.13;4.03;;;1.70;93.80;;;;;;5047443;28;20036;-86
2021/11/29 05:16:27;;;;;;;8.80;4.13;;;1.70;93.90;;;;;;5048871;28;20063;-85
2021/11/29 05:18:53;;;;;;;6.57;3.53;;;1.70;93.80;;;;;;5049299;28;20399;-84
2021/11/29 05:21:18;;;;;;;8.77;3.50;;;1.70;93.80;;;;;;5045417;28;20803;-84
2021/11/29 05:23:45;;;;;;;5.95;3.03;;;1.70;93.80;;;;;;5032989;28;20046;-84
2021/11/29 05:26:11;;;;;;;8.15;3.20;;;1.70;93.80;;;;;;5041292;28;20025;-85
2021/11/29 05:28:37;;;;;;;8.00;3.00;;;1.70;93.80;;;;;;5046728;28;20040;-85
2021/11/29 05:31:03;;;;;;;6.40;2.67;;;1.80;93.80;;;;;;5040441;28;20464;-85
2021/11/29 05:33:28;;;;;;;6.38;2.80;;;1.80;93.80;;;;;;5038026;28;20041;-85
2021/11/29 05:35:54;;;;;;;6.57;2.78;;;1.80;93.90;;;;;;5042725;28;20052;-85
2021/11/29 05:38:20;;;;;;;6.15;2.22;;;1.90;93.80;;;;;;5041552;28;20033;-85
2021/11/29 05:40:45;;;;;;;5.32;2.75;;;1.90;93.90;;;;;;5042068;28;20029;-84
2021/11/29 05:43:11;;;;;;;6.63;2.92;;;2.00;93.90;;;;;;5038212;28;20049;-84
2021/11/29 05:45:37;;;;;;;6.50;3.28;;;2.00;93.80;;;;;;5050328;28;20146;-85
2021/11/29 05:48:03;;;;;;;6.80;3.15;;;2.00;93.80;;;;;;5048005;28;20041;-83
2021/11/29 05:50:29;;;;;;;5.70;2.80;;;2.00;93.80;;;;;;5044887;28;20032;-84
2021/11/29 05:52:55;;;;;;;6.35;3.30;;;1.90;93.80;;;;;;5050182;28;20064;-83
2021/11/29 05:55:20;;;;;;;8.18;3.35;;;1.90;93.80;;;;;;5054197;28;20037;-83
2021/11/29 05:57:46;;;;;;;7.45;2.97;;;1.90;93.80;;;;;;5050155;28;20412;-83
2021/11/29 06:00:16;;;;;;;7.90;3.33;;;1.90;93.70;;;;;;5048841;28;20037;-83
2021/11/29 06:02:42;;;;;;;6.90;3.38;;;1.80;93.80;;;;;;5041943;28;20039;-83
2021/11/29 06:05:09;;;;;;;6.45;3.15;;;1.70;93.70;;;;;;5047343;28;20091;-85
2021/11/29 06:07:35;;;;;;;7.53;3.60;;;1.80;93.80;;;;;;5069054;28;20040;-88
2021/11/29 06:10:02;;;;;;;8.27;3.78;;;1.70;93.80;;;;;;5059581;28;20170;-84
2021/11/29 06:12:28;;;;;;;11.18;6.07;;;1.70;93.80;;;;;;5050617;28;20127;-85
2021/11/29 06:14:54;;;;;;;11.77;7.78;;;1.60;93.80;;;;;;5053316;28;20128;-85
2021/11/29 06:17:19;;;;;;;20.05;11.80;;;1.60;93.90;;;;;;5042540;28;20127;-86
2021/11/29 06:19:45;;;;;;;14.18;10.30;;;1.60;93.90;;;;;;5047551;28;20037;-86
2021/11/29 06:22:10;;;;;;;11.93;8.57;;;1.60;93.90;;;;;;5054826;28;20413;-86
2021/11/29 06:24:36;;;;;;;11.07;6.25;;;1.60;94.00;;;;;;5048006;28;20097;-86
2021/11/29 06:27:02;;;;;;;7.85;4.60;;;1.60;94.00;;;;;;5049282;28;20428;-85
2021/11/29 06:29:28;;;;;;;7.70;4.18;;;1.60;94.10;;;;;;5051754;28;20033;-84
2021/11/29 06:31:53;;;;;;;6.35;3.47;;;1.60;94.10;;;;;;5052851;28;20119;-86
2021/11/29 06:34:19;;;;;;;9.07;3.88;;;1.50;94.10;;;;;;5052903;28;20124;-85
2021/11/29 06:36:44;;;;;;;7.25;3.97;;;1.50;94.20;;;;;;5052630;28;20036;-85
2021/11/29 06:39:11;;;;;;;8.70;3.35;;;1.50;94.20;;;;;;5060974;28;20048;-85
2021/11/29 06:41:37;;;;;;;8.25;4.38;;;1.60;94.20;;;;;;5052946;28;20546;-85
2021/11/29 06:44:03;;;;;;;7.68;3.25;;;1.60;94.20;;;;;;5057247;28;20040;-84
2021/11/29 06:46:28;;;;;;;7.47;3.33;;;1.60;94.20;;;;;;5057068;28;20399;-85
2021/11/29 06:48:54;;;;;;;6.93;2.92;;;1.60;94.20;;;;;;5076485;28;20055;-86
2021/11/29 06:51:23;;;;;;;6.18;3.38;;;1.60;94.20;;;;;;5077508;28;20032;-86
2021/11/29 06:53:50;;;;;;;10.43;4.18;;;1.60;94.20;;;;;;5064917;28;20030;-84
2021/11/29 06:56:15;;;;;;;5.88;3.22;;;1.60;94.20;;;;;;5053560;28;20025;-83
2021/11/29 06:58:41;;;;;;;5.88;3.20;;;1.60;94.20;;;;;;5056169;28;20044;-84
2021/11/29 07:01:07;;;;;;;6.88;3.65;;;1.60;94.30;;;;;;5053542;28;20029;-84
2021/11/29 07:03:34;;;;;;;10.35;3.63;;;1.70;94.30;;;;;;5054359;28;20039;-85
2021/11/29 07:06:01;;;;;;;8.30;4.30;;;1.70;94.30;;;;;;5052239;28;20037;-84
2021/11/29 07:08:27;;;;;;;6.65;4.00;;;1.70;94.20;;;;;;5050628;28;20076;-86
2021/11/29 07:10:52;;;;;;;7.93;3.53;;;1.70;94.10;;;;;;5046180;28;20568;-85
2021/11/29 07:13:18;;;;;;;9.80;3.63;;;1.60;94.00;;;;;;5045241;28;20033;-85
2021/11/29 07:15:45;;;;;;;7.63;3.42;;;1.60;93.90;;;;;;5049271;28;20551;-85
2021/11/29 07:18:13;;;;;;;9.73;4.90;;;1.60;93.90;;;;;;5048239;28;20112;-85
2021/11/29 07:20:39;;;;;;;6.07;3.38;;;1.60;93.90;;;;;;5048652;28;20033;-84
2021/11/29 07:23:05;;;;;;;7.53;3.45;;;1.50;93.80;;;;;;5048588;28;20149;-85
2021/11/29 07:25:31;;;;;;;9.45;3.53;;;1.50;93.80;;;;;;5051820;28;20396;-84
2021/11/29 07:27:57;;;;;;;8.52;3.10;;;1.50;93.80;;;;;;5051425;28;20044;-84
2021/11/29 07:30:24;;;;;;;6.53;3.17;;;1.40;93.80;;;;;;5051819;28;20029;-85
2021/11/29 07:32:54;;;;;;;8.95;3.03;;;1.40;93.80;;;;;;5052085;28;20067;-83
2021/11/29 07:35:21;;;;;;;7.97;3.67;;;1.50;93.90;;;;;;5052865;28;20044;-84
2021/11/29 07:37:47;;;;;;;6.45;3.03;;;1.50;93.90;;;;;;5050880;28;20041;-83
2021/11/29 07:40:13;;;;;;;7.10;2.80;;;1.50;93.90;;;;;;5043363;28;20033;-84
2021/11/29 07:42:38;;;;;;;4.25;2.65;;;1.50;93.80;;;;;;5048343;28;20044;-85
2021/11/29 07:45:06;;;;;;;7.22;3.00;;;1.50;93.70;;;;;;5046858;28;20021;-84
2021/11/29 07:47:32;;;;;;;7.82;3.20;;;1.50;93.80;;;;;;5047706;28;20052;-84
2021/11/29 07:49:57;;;;;;;7.72;3.42;;;1.60;93.80;;;;;;5046656;28;20362;-84
2021/11/29 07:52:23;;;;;;;7.78;3.25;;;1.70;93.90;;;;;;5046524;28;20033;-86
2021/11/29 07:54:49;;;;;;;6.93;3.25;;;1.80;94.00;;;;;;5043325;28;20130;-85
2021/11/29 07:57:17;;;;;;;11.82;3.30;;;1.90;93.80;;;;;;5048315;28;20045;-85
2021/11/29 07:59:43;;;;;;;13.20;3.78;;;1.90;93.50;;;;;;5049629;28;20127;-84
2021/11/29 08:02:11;;;;;;;8.13;2.92;;;2.00;93.30;;;;;;5045598;28;20033;-84
2021/11/29 08:04:36;;;;;;;5.65;3.05;;;1.90;93.00;;;;;;5050296;28;20033;-85
2021/11/29 08:07:02;;;;;;;8.68;3.58;;;1.90;92.90;;;;;;5047140;28;20045;-86
2021/11/29 08:09:28;;;;;;;8.82;3.35;;;2.00;92.90;;;;;;5048573;28;21733;-84
2021/11/29 08:11:53;;;;;;;8.77;3.80;;;2.00;92.90;;;;;;5048445;28;20041;-86
2021/11/29 08:14:19;;;;;;;10.00;3.55;;;2.00;92.90;;;;;;5047635;28;20039;-86
2021/11/29 08:16:45;;;;;;;11.43;3.67;;;2.00;92.90;;;;;;5047530;28;20060;-85
2021/11/29 08:19:11;;;;;;;12.10;3.95;;;2.00;92.80;;;;;;5045933;28;20033;-85
2021/11/29 08:21:37;;;;;;;10.73;3.60;;;2.10;92.80;;;;;;5047418;28;20094;-84
2021/11/29 08:24:03;;;;;;;7.15;3.50;;;2.00;92.80;;;;;;5047176;28;20029;-84
2021/11/29 08:26:28;;;;;;;8.85;4.03;;;2.00;92.70;;;;;;5046957;28;20033;-85
2021/11/29 08:28:54;;;;;;;9.25;4.10;;;2.10;92.70;;;;;;5045296;28;20053;-85
2021/11/29 08:31:20;;;;;;;10.35;4.13;;;2.10;92.70;;;;;;5047365;28;20037;-85
2021/11/29 08:33:46;;;;;;;11.88;4.20;;;2.20;92.60;;;;;;5044263;28;20036;-85
2021/11/29 08:36:11;;;;;;;7.68;3.83;;;2.30;92.50;;;;;;5046606;28;20037;-85
2021/11/29 08:38:37;;;;;;;8.23;3.33;;;2.30;92.40;;;;;;5048697;28;20038;-88
2021/11/29 08:41:03;;;;;;;13.95;3.40;;;2.30;92.30;;;;;;5071621;28;20069;-89
2021/11/29 08:43:29;;;;;;;10.20;3.60;;;2.40;92.10;;;;;;5073952;28;20021;-89
2021/11/29 08:45:56;;;;;;;9.07;3.53;;;2.50;92.10;;;;;;5061914;28;20040;-88
2021/11/29 08:48:24;;;;;;;8.10;3.08;;;2.60;92.10;;;;;;5042328;28;20441;-85
2021/11/29 08:50:54;;;;;;;7.47;2.92;;;2.80;91.80;;;;;;5047997;28;20065;-85
2021/11/29 08:53:23;;;;;;;12.10;3.10;;;2.90;91.40;;;;;;5042253;28;20477;-85
2021/11/29 08:55:50;;;;;;;10.23;3.58;;;3.00;91.10;;;;;;5044143;28;20029;-86
2021/11/29 08:58:16;;;;;;;6.90;2.97;;;3.00;90.50;;;;;;5048098;28;20544;-85
2021/11/29 09:00:44;;;;;;;9.05;3.53;;;3.00;90.50;;;;;;5047940;28;20550;-85
2021/11/29 09:03:11;;;;;;;10.48;4.05;;;3.00;90.50;;;;;;5045709;28;20041;-85
2021/11/29 09:05:39;;;;;;;12.35;4.20;;;2.90;90.50;;;;;;5047079;28;20036;-85
2021/11/29 09:08:06;;;;;;;9.93;4.15;;;2.90;90.60;;;;;;5047175;28;20067;-85
2021/11/29 09:10:31;;;;;;;9.32;4.30;;;3.00;90.70;;;;;;5058312;28;20060;-85
2021/11/29 09:12:58;;;;;;;10.48;4.30;;;3.10;90.60;;;;;;5060876;28;20048;-88
2021/11/29 09:15:24;;;;;;;12.02;4.03;;;3.20;90.40;;;;;;5049282;28;20162;-86
2021/11/29 09:17:50;;;;;;;7.88;3.70;;;3.40;90.30;;;;;;5046187;28;20036;-86
2021/11/29 09:20:19;;;;;;;9.98;3.80;;;3.50;90.00;;;;;;5046305;28;20059;-88
2021/11/29 09:22:46;;;;;;;9.70;3.53;;;3.50;90.30;;;;;;5054615;28;20032;-85
2021/11/29 09:25:12;;;;;;;7.80;3.22;;;3.60;90.30;;;;;;5045280;28;20045;-86
2021/11/29 09:27:39;;;;;;;8.73;3.38;;;3.60;90.30;;;;;;5045986;28;20049;-86
2021/11/29 09:30:08;;;;;;;9.05;3.70;;;3.60;90.40;;;;;;5052683;28;20036;-85
2021/11/29 09:32:38;;;;;;;12.13;3.70;;;3.60;90.40;;;;;;5042825;28;20094;-81
2021/11/29 09:35:10;;;;;;;8.52;4.45;;;3.60;90.50;;;;;;5034579;28;20683;-81
2021/11/29 09:37:37;;;;;;;6.57;3.20;;;3.60;90.80;;;;;;5036539;28;20044;-82
2021/11/29 09:40:06;;;;;;;11.27;3.40;;;3.70;90.90;;;;;;5040046;28;20040;-81
2021/11/29 09:42:33;;;;;;;8.13;3.30;;;3.80;90.80;;;;;;5039951;28;20025;-81
2021/11/29 09:44:59;;;;;;;10.88;3.58;;;3.90;90.60;;;;;;5035449;28;20496;-82
2021/11/29 09:47:25;;;;;;;8.80;3.28;;;4.10;90.20;;;;;;5036310;28;20042;-81
2021/11/29 09:49:55;;;;;;;7.00;3.50;;;4.20;89.60;;;;;;5032688;28;20063;-81
2021/11/29 09:52:22;;;;;;;9.88;3.20;;;4.40;89.10;;;;;;5039777;28;20041;-81
2021/11/29 09:54:49;;;;;;;7.65;2.78;;;4.60;88.30;;;;;;5033573;28;20124;-81
2021/11/29 09:57:14;;;;;;;7.50;2.85;;;4.70;86.60;;;;;;5035822;28;20041;-83
2021/11/29 09:59:40;;;;;;;11.38;3.08;;;4.70;86.70;;;;;;5036142;28;20465;-84
2021/11/29 10:02:08;;;;;;;6.00;2.60;;;4.70;86.10;;;;;;5038466;28;20461;-81
2021/11/29 10:04:34;;;;;;;5.20;2.45;;;4.60;84.90;;;;;;5039654;28;20060;-84
2021/11/29 10:07:03;;;;;;;6.95;2.30;;;4.70;85.20;;;;;;5040723;28;20200;-82
2021/11/29 10:09:38;;;;;;;6.18;2.83;;;4.70;84.20;;;;;;5038417;28;20132;-81
2021/11/29 10:12:10;;;;;;;8.23;2.80;;;4.90;83.80;;;;;;5042994;28;20059;-82
2021/11/29 10:14:37;;;;;;;7.70;2.50;;;4.90;83.80;;;;;;5039002;28;20152;-81
2021/11/29 10:17:03;;;;;;;8.93;3.08;;;4.80;84.70;;;;;;5047300;28;20493;-81
2021/11/29 10:19:37;;;;;;;8.43;3.30;;;4.70;85.10;;;;;;5046788;28;20029;-81
2021/11/29 10:22:18;;;;;;;4.88;2.97;;;4.60;85.20;;;;;;5045935;28;20433;-81
2021/11/29 10:24:46;;;;;;;6.43;3.05;;;4.60;85.10;;;;;;5043390;28;20944;-81
2021/11/29 10:27:12;;;;;;;6.22;2.88;;;4.40;85.60;;;;;;5044247;28;20133;-81
2021/11/29 10:29:47;;;;;;;8.18;2.78;;;4.40;85.80;;;;;;5041234;28;20109;-81
2021/11/29 10:32:40;;;;;;;7.50;2.97;;;4.40;86.00;;;;;;5049730;28;20033;-81
2021/11/29 10:35:11;;;;;;;8.13;3.17;;;4.50;86.00;;;;;;5036733;28;20551;-82
2021/11/29 10:37:39;;;;;;;7.43;2.53;;;4.60;85.30;;;;;;5036625;28;20439;-80
2021/11/29 10:40:14;;;;;;;7.95;3.30;;;4.80;85.40;;;;;;5043813;28;20033;-81
2021/11/29 10:42:40;;;;;;;8.05;3.10;;;5.10;84.80;;;;;;5048621;28;20033;-81
2021/11/29 10:45:08;;;;;;;9.32;3.00;;;5.30;84.40;;;;;;5043712;28;20472;-81
2021/11/29 10:47:35;;;;;;;7.13;2.63;;;5.60;83.50;;;;;;5044413;28;20412;-80
2021/11/29 10:50:04;;;;;;;8.02;2.50;;;5.70;82.70;;;;;;5049611;28;20400;-83
2021/11/29 10:52:33;;;;;;;8.48;3.03;;;5.90;82.30;;;;;;5053238;28;20037;-79
2021/11/29 10:55:02;;;;;;;8.25;3.20;;;6.10;82.30;;;;;;5047493;28;20056;-80
2021/11/29 10:57:28;;;;;;;9.40;3.05;;;6.20;81.40;;;;;;5042786;28;20049;-79
2021/11/29 10:59:56;;;;;;;8.52;3.42;;;6.40;80.60;;;;;;5050373;28;20033;-80
2021/11/29 11:02:27;;;;;;;8.38;2.85;;;6.60;79.40;;;;;;5050105;28;20041;-79
2021/11/29 11:05:15;;;;;;;5.72;2.28;;;6.70;78.20;;;;;;5046874;28;20029;-80
2021/11/29 11:07:41;;;;;;;6.57;1.95;;;6.50;79.60;;;;;;5041097;28;20042;-79
2021/11/29 11:10:14;;;;;;;7.07;2.30;;;6.30;79.70;;;;;;5046908;28;20452;-79
2021/11/29 11:12:40;;;;;;;7.30;2.25;;;6.10;81.30;;;;;;5045237;28;20047;-79
2021/11/29 11:15:18;;;;;;;11.63;2.92;;;5.80;81.30;;;;;;5041409;28;20132;-80
2021/11/29 11:17:52;;;;;;;6.45;2.38;;;5.70;81.50;;;;;;5041290;28;20126;-81
2021/11/29 11:20:18;;;;;;;6.47;2.95;;;5.80;81.70;;;;;;5041958;28;20043;-79
2021/11/29 11:22:51;;;;;;;8.23;2.50;;;5.90;80.70;;;;;;5042714;28;20124;-79
2021/11/29 11:25:24;;;;;;;10.88;3.10;;;6.10;81.30;;;;;;5041814;28;20036;-79
2021/11/29 11:27:59;;;;;;;8.02;2.67;;;6.10;80.40;;;;;;5045118;28;20436;-79
2021/11/29 11:30:27;;;;;;;8.80;2.30;;;6.10;80.20;;;;;;5038435;28;20049;-80
2021/11/29 11:32:57;;;;;;;7.50;2.90;;;6.10;81.20;;;;;;5035374;28;20052;-79
2021/11/29 11:35:34;;;;;;;4.88;2.35;;;6.10;81.50;;;;;;5047220;28;20044;-79
2021/11/29 11:38:06;;;;;;;8.65;3.22;;;6.10;81.20;;;;;;5050689;28;20110;-79
2021/11/29 11:40:41;;;;;;;7.85;2.88;;;5.90;82.10;;;;;;5042159;28;20478;-80
2021/11/29 11:43:10;;;;;;;9.18;3.22;;;6.10;82.40;;;;;;5045725;28;20033;-79
2021/11/29 11:45:38;;;;;;;10.75;3.53;;;6.10;82.60;;;;;;5036724;28;20086;-81
2021/11/29 11:48:05;;;;;;;7.15;3.60;;;6.20;82.80;;;;;;5050364;28;20055;-79
2021/11/29 11:50:34;;;;;;;9.70;3.90;;;6.30;82.70;;;;;;5045983;28;20941;-80
2021/11/29 11:53:02;;;;;;;10.45;3.97;;;6.40;82.80;;;;;;5043537;28;20414;-80
2021/11/29 11:55:32;;;;;;;7.15;3.72;;;6.60;83.20;;;;;;5046067;28;20115;-80
2021/11/29 11:58:02;;;;;;;12.25;4.57;;;6.70;82.50;;;;;;5049152;28;20029;-80
2021/11/29 12:00:33;;;;;;;10.35;4.60;;;6.80;83.00;;;;;;5042504;28;20045;-80
2021/11/29 12:03:11;;;;;;;8.75;4.55;;;6.90;82.60;;;;;;5034666;28;20419;-82
2021/11/29 12:06:02;;;;;;;13.55;5.35;;;7.10;82.90;;;;;;5037952;28;20040;-80
2021/11/29 12:09:00;;;;;;;12.77;5.93;;;7.10;82.10;;;;;;5043455;28;20055;-80
2021/11/29 12:11:26;;;;;;;13.57;6.95;;;7.20;82.60;;;;;;5041966;28;20048;-80
2021/11/29 12:14:17;;;;;;;15.55;7.63;;;7.30;81.60;;;;;;5045863;28;20369;-81
2021/11/29 12:16:46;;;;;;;13.43;5.40;;;7.30;82.10;;;;;;5046303;28;20041;-80
2021/11/29 12:19:14;;;;;;;11.80;5.63;;;7.40;81.70;;;;;;5055828;28;20037;-81
2021/11/29 12:21:42;;;;;;;14.52;5.38;;;7.40;81.50;;;;;;5056641;28;20025;-79
2021/11/29 12:24:16;;;;;;;13.65;4.63;;;7.50;81.50;;;;;;5045069;28;20029;-80
2021/11/29 12:26:50;;;;;;;14.73;5.03;;;7.60;80.70;;;;;;5048822;28;20029;-79
2021/11/29 12:29:21;;;;;;;12.13;4.93;;;7.60;80.30;;;;;;5046632;28;20053;-79
2021/11/29 12:31:50;;;;;;;13.60;4.00;;;7.80;79.50;;;;;;5047710;28;20033;-79
2021/11/29 12:34:36;;;;;;;10.95;4.10;;;8.10;79.60;;;;;;5049476;28;20044;-79
2021/11/29 12:37:01;;;;;;;9.88;3.53;;;8.30;78.50;;;;;;5044004;28;20093;-79
2021/11/29 12:39:45;;;;;;;16.75;5.28;;;8.30;77.90;;;;;;5046396;28;20128;-79
2021/11/29 12:42:23;;;;;;;9.25;3.20;;;8.20;77.60;;;;;;5043705;28;20041;-79
2021/11/29 12:44:59;;;;;;;8.93;3.60;;;7.80;76.40;;;;;;5046925;28;20416;-80
2021/11/29 12:47:29;;;;;;;11.35;2.33;;;7.50;76.10;;;;;;5046855;28;20048;-80
2021/11/29 12:50:04;;;;;;;11.32;2.42;;;7.50;75.40;;;;;;5051534;28;20616;-80
2021/11/29 12:52:33;;;;;;;10.30;1.92;;;7.40;76.10;;;;;;5047858;28;20029;-80
2021/11/29 12:54:58;;;;;;;11.50;3.03;;;7.20;75.50;;;;;;5047910;28;20037;-80
2021/11/29 12:57:36;;;;;;;12.05;2.50;;;7.10;76.20;;;;;;5044258;28;20404;-80